Time;durP1;ratioP1;P1;durP2;ratioP2;P2;SDS_P1;SDS_P2;PMS_P1;PMS_P2;Temp;Humidity;BMP_temperature;BMP_pressure;BME280_temperature;BME280_humidity;BME280_pressure;Samples;Min_cycle;Max_cycle;Signal;HPM_P1;HPM_P2
2022/02/18 00:00:19;;;;;;;13.75;3.72;;;;;;;5.82;98.99;100426.50;678541;29;1051;-82
2022/02/18 00:00:40;;;;;;;15.35;3.67;;;;;;;5.80;98.61;100444.66;676792;29;1063;-81
2022/02/18 00:01:13;;;;;;;15.75;3.67;;;;;;;5.77;99.29;100421.28;667479;29;4441;-81
2022/02/18 00:01:42;;;;;;;16.35;3.97;;;;;;;5.99;99.07;100452.66;682668;29;1989;-81
2022/02/18 00:02:03;;;;;;;13.77;3.95;;;;;;;6.01;97.22;100439.69;678221;29;1269;-82
2022/02/18 00:02:27;;;;;;;15.35;4.03;;;;;;;6.00;97.67;100438.84;676328;29;2046;-81
2022/02/18 00:02:48;;;;;;;14.23;3.80;;;;;;;5.90;97.90;100436.97;676036;29;1265;-82
2022/02/18 00:03:15;;;;;;;13.00;3.88;;;;;;;5.90;97.02;100411.03;678889;29;1613;-81
2022/02/18 00:03:37;;;;;;;13.38;3.40;;;;;;;5.90;97.29;100434.38;675760;29;1517;-81
2022/02/18 00:04:02;;;;;;;14.55;3.55;;;;;;;5.83;98.80;100422.19;676873;29;4321;-81
2022/02/18 00:04:24;;;;;;;15.40;3.45;;;;;;;5.80;98.75;100417.81;675787;29;1443;-81
2022/02/18 00:04:45;;;;;;;11.98;2.90;;;;;;;5.82;98.71;100434.28;673073;29;2480;-81
2022/02/18 00:05:06;;;;;;;15.47;3.23;;;;;;;6.02;99.06;100438.84;673210;29;1630;-81
2022/02/18 00:05:27;;;;;;;15.77;3.50;;;;;;;6.13;98.09;100414.75;673807;29;1186;-81
2022/02/18 00:05:47;;;;;;;16.23;3.90;;;;;;;6.20;97.55;100425.19;673658;29;2415;-81
2022/02/18 00:06:11;;;;;;;14.40;3.70;;;;;;;6.16;96.07;100433.78;672856;29;1666;-81
2022/02/18 00:06:32;;;;;;;12.70;3.42;;;;;;;6.10;95.51;100430.28;674803;29;4409;-81
2022/02/18 00:06:53;;;;;;;13.15;3.55;;;;;;;6.04;97.28;100425.03;675800;29;4310;-81
2022/02/18 00:07:14;;;;;;;14.38;3.78;;;;;;;5.96;98.59;100430.09;676741;29;1642;-81
2022/02/18 00:07:40;;;;;;;12.60;3.45;;;;;;;5.91;98.52;100413.63;675937;29;1439;-81
2022/02/18 00:08:01;;;;;;;12.38;3.80;;;;;;;5.91;97.60;100417.94;672985;29;1442;-81
2022/02/18 00:08:59;;;;;;;14.90;3.67;;;;;;;5.83;99.47;100414.38;674540;29;1249;-82
2022/02/18 00:09:19;;;;;;;13.15;3.00;;;;;;;5.84;97.33;100449.88;673448;29;2185;-81
2022/02/18 00:09:40;;;;;;;13.40;3.13;;;;;;;5.85;96.48;100417.88;673449;29;1480;-82
2022/02/18 00:10:01;;;;;;;12.30;3.70;;;;;;;5.84;97.70;100436.91;671730;29;4396;-81
2022/02/18 00:10:22;;;;;;;13.23;3.55;;;;;;;5.80;99.27;100410.94;671049;29;1167;-81
2022/02/18 00:10:46;;;;;;;14.68;3.72;;;;;;;5.82;98.71;100423.06;669722;29;1286;-81
2022/02/18 00:11:09;;;;;;;11.93;3.40;;;;;;;5.79;98.99;100416.97;667202;29;1448;-81
2022/02/18 00:11:30;;;;;;;18.38;4.15;;;;;;;5.77;99.64;100430.75;671267;29;1674;-82
2022/02/18 00:11:50;;;;;;;18.13;3.93;;;;;;;5.74;98.50;100418.63;672588;29;984;-81
2022/02/18 00:12:12;;;;;;;12.05;3.17;;;;;;;5.69;99.75;100433.28;676476;29;1594;-81
2022/02/18 00:12:33;;;;;;;14.15;3.90;;;;;;;5.67;100.00;100403.84;676617;29;1574;-81
2022/02/18 00:12:54;;;;;;;13.43;3.45;;;;;;;5.68;98.81;100431.53;674150;29;4361;-81
2022/02/18 00:13:16;;;;;;;11.23;3.20;;;;;;;5.70;97.85;100409.06;674636;29;3993;-82
2022/02/18 00:13:37;;;;;;;12.75;3.10;;;;;;;5.72;97.18;100412.56;676538;29;1332;-81
2022/02/18 00:13:57;;;;;;;15.15;3.33;;;;;;;5.75;97.11;100410.00;675838;29;1301;-81
2022/02/18 00:14:18;;;;;;;13.90;3.43;;;;;;;5.73;98.74;100422.09;676785;29;1486;-81
2022/02/18 00:14:39;;;;;;;14.90;4.20;;;;;;;5.73;98.10;100424.69;674834;29;1397;-82
2022/02/18 00:15:04;;;;;;;13.45;3.35;;;;;;;5.72;99.21;100435.91;674992;29;1511;-81
2022/02/18 00:15:25;;;;;;;14.10;3.30;;;;;;;5.73;98.62;100401.34;674719;29;1588;-82
2022/02/18 00:15:46;;;;;;;15.30;3.40;;;;;;;5.74;97.79;100422.94;676233;29;1494;-81
2022/02/18 00:16:07;;;;;;;13.73;3.42;;;;;;;5.70;99.24;100409.06;679936;29;4326;-81
2022/02/18 00:16:27;;;;;;;15.03;3.67;;;;;;;5.67;99.92;100398.66;680033;29;1384;-82
2022/02/18 00:16:48;;;;;;;17.17;4.38;;;;;;;5.62;99.99;100428.84;676405;29;1391;-81
2022/02/18 00:17:09;;;;;;;18.60;4.10;;;;;;;5.61;100.00;100429.72;675729;29;3773;-81
2022/02/18 00:17:49;;;;;;;15.70;3.42;;;;;;;5.57;100.00;100407.22;679128;29;1970;-81
2022/02/18 00:18:18;;;;;;;15.52;3.50;;;;;;;5.60;98.36;100396.88;677601;29;1426;-81
2022/02/18 00:18:44;;;;;;;13.30;3.90;;;;;;;5.56;100.00;100411.50;680168;29;1539;-81
2022/02/18 00:19:05;;;;;;;15.77;3.60;;;;;;;5.55;100.00;100434.81;679130;28;4498;-81
2022/02/18 00:19:29;;;;;;;14.38;3.30;;;;;;;5.55;99.46;100404.59;681636;28;1928;-81
2022/02/18 00:19:50;;;;;;;12.77;3.20;;;;;;;5.54;100.00;100407.16;675735;29;1734;-81
2022/02/18 00:20:15;;;;;;;11.43;3.00;;;;;;;5.55;99.31;100408.91;674017;29;1288;-81
2022/02/18 00:20:40;;;;;;;15.10;3.53;;;;;;;5.52;100.00;100404.53;675317;29;2477;-81
2022/02/18 00:21:09;;;;;;;14.80;4.28;;;;;;;5.49;100.00;100419.22;673657;29;1425;-81
2022/02/18 00:21:32;;;;;;;11.35;3.20;;;;;;;5.50;99.28;100410.56;676187;29;1919;-80
2022/02/18 00:21:53;;;;;;;12.23;3.47;;;;;;;5.55;100.00;100430.53;676577;29;4383;-81
2022/02/18 00:22:14;;;;;;;14.63;3.58;;;;;;;5.55;99.31;100403.72;671460;29;1439;-81
2022/02/18 00:22:44;;;;;;;14.00;3.53;;;;;;;5.54;100.00;100407.16;674824;29;1524;-81
2022/02/18 00:23:08;;;;;;;17.42;4.03;;;;;;;5.54;100.00;100409.75;674966;29;1781;-80
2022/02/18 00:23:42;;;;;;;16.13;4.22;;;;;;;5.49;100.00;100403.66;679541;29;1413;-81
2022/02/18 00:24:05;;;;;;;13.20;3.95;;;;;;;5.48;100.00;100399.31;673276;29;2853;-80
2022/02/18 00:24:29;;;;;;;14.48;4.53;;;;;;;5.48;100.00;100414.88;679114;29;1678;-81
2022/02/18 00:24:56;;;;;;;16.17;3.65;;;;;;;5.49;100.00;100430.44;673788;29;4336;-81
2022/02/18 00:25:17;;;;;;;13.77;3.65;;;;;;;5.44;100.00;100422.63;677196;29;1234;-81
2022/02/18 00:25:40;;;;;;;13.93;3.70;;;;;;;5.46;100.00;100441.63;670809;29;1173;-81
2022/02/18 00:26:00;;;;;;;14.20;3.60;;;;;;;5.42;100.00;100413.94;676988;29;1614;-80
2022/02/18 00:26:21;;;;;;;14.50;3.55;;;;;;;5.44;100.00;100401.88;676631;29;2499;-81
2022/02/18 00:26:41;;;;;;;17.23;3.70;;;;;;;5.45;100.00;100402.72;675865;29;1505;-81
2022/02/18 00:27:05;;;;;;;19.95;3.95;;;;;;;5.45;100.00;100434.75;675111;29;931;-81
2022/02/18 00:27:27;;;;;;;17.33;3.67;;;;;;;5.45;100.00;100429.56;678662;28;1622;-80
2022/02/18 00:27:50;;;;;;;13.77;3.60;;;;;;;5.46;100.00;100430.41;678113;28;4333;-81
2022/02/18 00:28:13;;;;;;;12.05;3.15;;;;;;;5.50;99.69;100420.94;677950;29;1103;-81
2022/02/18 00:28:36;;;;;;;12.73;3.10;;;;;;;5.51;100.00;100404.53;678317;29;1167;-83
2022/02/18 00:28:57;;;;;;;12.77;3.17;;;;;;;5.52;99.97;100450.34;677167;29;1412;-81
2022/02/18 00:29:17;;;;;;;11.70;3.10;;;;;;;5.53;100.00;100411.47;679394;29;2296;-80
2022/02/18 00:29:38;;;;;;;14.20;3.40;;;;;;;5.55;100.00;100403.72;676119;29;2782;-80
2022/02/18 00:30:00;;;;;;;14.52;3.20;;;;;;;5.55;99.75;100417.56;672866;29;1825;-81
2022/02/18 00:30:20;;;;;;;17.15;4.40;;;;;;;5.59;100.00;100423.63;673359;29;1280;-80
2022/02/18 00:30:41;;;;;;;19.38;4.75;;;;;;;5.59;100.00;100426.22;675879;29;1189;-80
2022/02/18 00:31:02;;;;;;;16.67;4.30;;;;;;;5.59;100.00;100400.31;675459;29;4279;-81
2022/02/18 00:31:23;;;;;;;18.63;4.72;;;;;;;5.57;100.00;100425.38;675745;29;1214;-80
2022/02/18 00:31:44;;;;;;;16.20;4.57;;;;;;;5.54;100.00;100451.22;675439;29;1188;-80
2022/02/18 00:32:08;;;;;;;18.83;4.55;;;;;;;5.58;100.00;100408.94;676491;29;1390;-80
2022/02/18 00:32:29;;;;;;;20.23;4.90;;;;;;;5.61;100.00;100409.00;675292;29;1443;-80
2022/02/18 00:32:50;;;;;;;18.02;3.97;;;;;;;5.59;100.00;100406.38;675674;29;971;-80
2022/02/18 00:33:11;;;;;;;16.23;4.13;;;;;;;5.63;100.00;100418.53;675753;29;1150;-80
2022/02/18 00:33:32;;;;;;;23.40;5.22;;;;;;;5.66;99.83;100434.97;679226;29;2172;-80
2022/02/18 00:33:53;;;;;;;21.45;5.20;;;;;;;5.62;100.00;100406.41;672383;29;4330;-80
2022/02/18 00:34:16;;;;;;;21.02;5.05;;;;;;;5.64;100.00;100429.75;674246;29;1504;-80
2022/02/18 00:34:39;;;;;;;18.70;5.30;;;;;;;5.63;100.00;100408.16;676598;29;1391;-81
2022/02/18 00:35:08;;;;;;;14.93;4.65;;;;;;;5.66;100.00;100433.22;672542;29;1508;-81
2022/02/18 00:35:41;;;;;;;16.92;4.20;;;;;;;5.68;100.00;100421.16;675695;29;1399;-80
2022/02/18 00:36:22;;;;;;;16.80;4.00;;;;;;;5.67;100.00;100421.16;676616;29;1095;-80
2022/02/18 00:37:09;;;;;;;16.25;3.88;;;;;;;5.67;100.00;100434.13;675320;29;3568;-80
2022/02/18 00:37:48;;;;;;;18.20;4.32;;;;;;;5.66;100.00;100433.22;667189;29;4929;-81
2022/02/18 00:38:29;;;;;;;15.82;3.97;;;;;;;5.63;100.00;100428.00;680883;29;1066;-81
2022/02/18 00:38:59;;;;;;;15.02;3.88;;;;;;;5.66;100.00;100450.53;680138;29;1641;-81
2022/02/18 00:39:20;;;;;;;17.58;4.10;;;;;;;5.66;100.00;100430.63;678504;29;4686;-81
2022/02/18 00:39:43;;;;;;;17.17;4.65;;;;;;;5.65;100.00;100451.38;678969;29;2514;-81
2022/02/18 00:40:05;;;;;;;14.75;3.75;;;;;;;5.63;100.00;100433.19;673812;29;4331;-81
2022/02/18 00:40:38;;;;;;;17.98;4.15;;;;;;;5.64;100.00;100419.38;675009;29;1464;-81
2022/02/18 00:40:58;;;;;;;17.73;4.32;;;;;;;5.63;100.00;100435.78;669766;29;1859;-81
2022/02/18 00:41:21;;;;;;;18.10;3.97;;;;;;;5.63;100.00;100439.28;672597;29;1686;-81
2022/02/18 00:41:47;;;;;;;15.15;4.10;;;;;;;5.63;100.00;100420.22;671157;29;1982;-81
2022/02/18 00:42:38;;;;;;;15.95;4.15;;;;;;;5.59;100.00;100458.25;673796;29;1213;-82
2022/02/18 00:43:03;;;;;;;16.77;4.10;;;;;;;5.54;100.00;100421.00;671748;29;4305;-81
2022/02/18 00:43:25;;;;;;;18.27;4.50;;;;;;;5.53;100.00;100421.00;678071;29;1326;-81
2022/02/18 00:43:45;;;;;;;16.35;3.97;;;;;;;5.54;100.00;100452.13;680940;29;1500;-80
2022/02/18 00:44:09;;;;;;;17.13;3.97;;;;;;;5.56;100.00;100426.22;676614;29;1704;-81
2022/02/18 00:44:39;;;;;;;16.38;4.32;;;;;;;5.56;100.00;100433.97;676158;29;1364;-81
2022/02/18 00:44:59;;;;;;;15.68;4.30;;;;;;;5.55;100.00;100424.47;681269;28;1592;-81
2022/02/18 00:45:21;;;;;;;18.83;4.00;;;;;;;5.58;100.00;100445.22;680087;28;1629;-81
2022/02/18 00:45:43;;;;;;;16.92;3.53;;;;;;;5.56;100.00;100427.06;680218;29;1440;-81
2022/02/18 00:46:07;;;;;;;15.95;3.50;;;;;;;5.56;100.00;100436.56;676080;28;4444;-81
2022/02/18 00:46:29;;;;;;;14.27;3.65;;;;;;;5.57;100.00;100427.97;673535;29;1952;-81
2022/02/18 00:46:58;;;;;;;15.90;3.60;;;;;;;5.58;100.00;100427.06;677472;29;1425;-81
2022/02/18 00:47:20;;;;;;;15.25;3.78;;;;;;;5.59;99.89;100428.81;679123;29;1427;-81
2022/02/18 00:47:41;;;;;;;15.23;3.67;;;;;;;5.59;100.00;100423.63;674221;29;1135;-81
2022/02/18 00:48:11;;;;;;;14.48;3.88;;;;;;;5.58;100.00;100416.72;672050;29;1460;-82
2022/02/18 00:48:50;;;;;;;15.85;3.65;;;;;;;5.58;100.00;100440.03;673183;29;4568;-81
2022/02/18 00:49:11;;;;;;;16.95;4.15;;;;;;;5.54;100.00;100443.44;674190;29;1330;-81
2022/02/18 00:49:34;;;;;;;15.88;3.67;;;;;;;5.53;100.00;100436.53;679867;29;1246;-81
2022/02/18 00:49:58;;;;;;;17.55;3.78;;;;;;;5.53;100.00;100428.78;681509;28;1527;-81
2022/02/18 00:50:20;;;;;;;17.83;3.60;;;;;;;5.55;100.00;100437.41;676617;29;1578;-81
2022/02/18 00:50:42;;;;;;;18.45;3.58;;;;;;;5.53;100.00;100426.19;673801;29;1335;-81
2022/02/18 00:51:03;;;;;;;16.90;3.72;;;;;;;5.54;100.00;100435.66;674588;29;1378;-81
2022/02/18 00:51:24;;;;;;;18.03;3.80;;;;;;;5.58;100.00;100429.66;672950;29;1732;-81
2022/02/18 00:51:46;;;;;;;16.38;3.80;;;;;;;5.62;100.00;100441.81;676254;29;1444;-81
2022/02/18 00:52:07;;;;;;;16.35;4.00;;;;;;;5.72;100.00;100451.47;674030;29;4312;-81
2022/02/18 00:52:28;;;;;;;14.77;3.35;;;;;;;5.76;100.00;100416.94;670594;29;4092;-81
2022/02/18 00:52:49;;;;;;;15.35;3.60;;;;;;;5.91;100.00;100454.25;674030;29;1634;-81
2022/02/18 00:53:10;;;;;;;14.77;3.50;;;;;;;5.90;100.00;100443.03;672283;29;1553;-81
2022/02/18 00:53:32;;;;;;;18.03;3.60;;;;;;;5.92;100.00;100424.88;673854;29;1232;-81
2022/02/18 00:53:57;;;;;;;16.65;3.50;;;;;;;6.00;100.00;100420.66;675254;29;1158;-80
2022/02/18 00:54:21;;;;;;;15.60;4.00;;;;;;;5.99;100.00;100426.72;671672;29;1507;-81
2022/02/18 00:54:42;;;;;;;16.83;3.95;;;;;;;5.94;100.00;100449.09;671369;29;1439;-81
2022/02/18 00:55:03;;;;;;;13.43;3.33;;;;;;;5.92;99.17;100424.88;672629;29;4317;-82
2022/02/18 00:55:28;;;;;;;15.20;3.70;;;;;;;5.90;100.00;100421.41;672432;29;1543;-80
2022/02/18 00:55:50;;;;;;;14.48;3.35;;;;;;;5.85;100.00;100423.94;675196;29;2274;-80
2022/02/18 00:56:11;;;;;;;13.65;3.60;;;;;;;5.75;100.00;100441.13;673243;29;3953;-80
2022/02/18 00:56:32;;;;;;;15.77;3.87;;;;;;;5.75;100.00;100422.97;675259;29;1425;-81
2022/02/18 00:56:54;;;;;;;16.48;3.35;;;;;;;5.72;100.00;100448.00;675611;29;1314;-81
2022/02/18 00:57:27;;;;;;;14.32;3.08;;;;;;;5.71;100.00;100425.53;678011;29;1432;-81
2022/02/18 00:57:52;;;;;;;11.73;2.78;;;;;;;5.69;99.48;100422.91;676175;29;4465;-81
2022/02/18 00:58:24;;;;;;;14.32;3.17;;;;;;;5.72;100.00;100456.66;672328;29;1361;-81
2022/02/18 00:58:44;;;;;;;14.02;3.13;;;;;;;5.66;100.00;100438.41;673640;29;1432;-81
2022/02/18 00:59:08;;;;;;;15.47;3.60;;;;;;;5.66;100.00;100430.63;673352;29;1320;-81
2022/02/18 00:59:29;;;;;;;14.88;3.30;;;;;;;5.62;100.00;100408.09;677353;29;4094;-81
2022/02/18 00:59:49;;;;;;;13.15;3.17;;;;;;;5.64;99.63;100434.94;678430;29;3947;-81
2022/02/18 01:00:13;;;;;;;14.38;3.22;;;;;;;5.67;98.86;100414.22;675368;29;1545;-81
2022/02/18 01:00:51;;;;;;;;;;;;;;;;;;;;;
2022/02/18 01:01:18;;;;;;;15.05;2.95;;;;;;;5.61;100.00;100422.81;675056;29;4796;-80
2022/02/18 01:01:51;;;;;;;14.70;3.20;;;;;;;5.63;100.00;100415.03;675571;29;1966;-81
2022/02/18 01:02:15;;;;;;;11.70;2.95;;;;;;;5.62;99.42;100410.69;673722;29;1338;-81
2022/02/18 01:02:36;;;;;;;11.90;2.88;;;;;;;5.62;100.00;100444.41;673515;29;1439;-81
2022/02/18 01:02:57;;;;;;;14.05;3.28;;;;;;;5.60;100.00;100418.47;674149;29;2440;-81
2022/02/18 01:03:18;;;;;;;13.63;2.97;;;;;;;5.61;100.00;100414.16;678050;29;1799;-81
2022/02/18 01:03:39;;;;;;;15.05;3.00;;;;;;;5.62;100.00;100418.47;675319;29;1629;-81
2022/02/18 01:04:03;;;;;;;13.18;3.05;;;;;;;5.59;100.00;100434.91;678331;29;4312;-81
2022/02/18 01:04:23;;;;;;;12.00;3.10;;;;;;;5.60;100.00;100440.94;673630;29;1481;-81
2022/02/18 01:04:47;;;;;;;13.15;3.17;;;;;;;5.59;100.00;100410.69;675463;29;1444;-81
2022/02/18 01:05:11;;;;;;;13.50;3.00;;;;;;;5.52;100.00;100416.66;675457;29;1245;-81
2022/02/18 01:05:32;;;;;;;14.23;3.20;;;;;;;5.48;100.00;100420.06;679056;29;1355;-81
2022/02/18 01:05:58;;;;;;;14.70;3.20;;;;;;;5.50;100.00;100407.97;678682;29;1543;-81
2022/02/18 01:06:37;;;;;;;15.75;3.65;;;;;;;5.51;100.00;100409.72;678712;29;1345;-81
2022/02/18 01:07:04;;;;;;;13.82;3.30;;;;;;;5.48;100.00;100407.94;669298;29;6422;-80
2022/02/18 01:07:29;;;;;;;13.48;3.33;;;;;;;5.44;100.00;100430.41;670207;29;1388;-81
2022/02/18 01:07:50;;;;;;;13.20;3.10;;;;;;;5.41;100.00;100425.19;670928;29;1720;-81
2022/02/18 01:08:11;;;;;;;13.30;3.17;;;;;;;5.45;100.00;100407.91;670774;29;1230;-81
2022/02/18 01:08:32;;;;;;;12.27;2.83;;;;;;;5.45;100.00;100408.81;673991;29;1505;-81
2022/02/18 01:08:59;;;;;;;12.90;2.97;;;;;;;5.49;99.78;100429.59;670817;29;1265;-81
2022/02/18 01:09:19;;;;;;;13.80;2.70;;;;;;;5.50;100.00;100405.38;673693;29;1834;-80
2022/02/18 01:09:40;;;;;;;16.13;3.60;;;;;;;5.52;100.00;100434.78;673168;29;3148;-81
2022/02/18 01:10:01;;;;;;;18.20;3.63;;;;;;;5.51;100.00;100439.13;671580;29;4321;-81
2022/02/18 01:10:25;;;;;;;20.40;4.68;;;;;;;5.49;100.00;100414.88;677959;29;1300;-81
2022/02/18 01:10:46;;;;;;;20.33;4.78;;;;;;;5.51;100.00;100433.06;675695;29;1336;-81
2022/02/18 01:11:06;;;;;;;15.32;3.90;;;;;;;5.52;100.00;100432.22;678625;28;1538;-81
2022/02/18 01:11:29;;;;;;;17.25;3.97;;;;;;;5.48;100.00;100407.09;676153;29;1406;-81
2022/02/18 01:11:49;;;;;;;15.80;4.03;;;;;;;5.48;100.00;100428.69;676458;28;1565;-81
2022/02/18 01:12:10;;;;;;;18.48;4.35;;;;;;;5.51;100.00;100439.13;678765;29;1448;-81
2022/02/18 01:12:31;;;;;;;18.73;4.35;;;;;;;5.53;100.00;100437.41;678684;29;1819;-81
2022/02/18 01:12:54;;;;;;;18.48;4.25;;;;;;;5.50;100.00;100402.78;676641;29;4355;-83
2022/02/18 01:13:20;;;;;;;18.70;4.80;;;;;;;5.49;100.00;100434.78;676086;29;3177;-81
2022/02/18 01:13:42;;;;;;;18.95;4.68;;;;;;;5.47;100.00;100429.56;675850;29;1960;-81
2022/02/18 01:14:08;;;;;;;17.73;4.82;;;;;;;5.48;100.00;100417.47;674892;29;1611;-81
2022/02/18 01:14:29;;;;;;;18.48;4.85;;;;;;;5.48;100.00;100420.06;672943;29;1545;-81
2022/02/18 01:14:50;;;;;;;16.77;4.47;;;;;;;5.47;100.00;100406.22;673299;29;1453;-81
2022/02/18 01:15:11;;;;;;;13.52;3.45;;;;;;;5.47;100.00;100408.81;677382;29;1661;-81
2022/02/18 01:15:34;;;;;;;13.52;3.20;;;;;;;5.45;100.00;100388.06;678813;29;1684;-81
2022/02/18 01:15:55;;;;;;;14.68;3.22;;;;;;;5.45;100.00;100403.63;666444;29;4364;-81
2022/02/18 01:16:24;;;;;;;11.53;3.13;;;;;;;5.48;100.00;100399.31;675931;29;3541;-81
2022/02/18 01:17:06;;;;;;;16.30;3.83;;;;;;;5.51;100.00;100407.13;679180;29;1340;-81
2022/02/18 01:17:26;;;;;;;17.98;4.30;;;;;;;5.51;100.00;100400.22;681102;28;1500;-81
2022/02/18 01:17:47;;;;;;;18.03;4.10;;;;;;;5.55;99.51;100395.94;676976;29;1522;-81
2022/02/18 01:18:11;;;;;;;14.68;3.90;;;;;;;5.53;100.00;100395.91;680688;29;1266;-81
2022/02/18 01:18:32;;;;;;;15.95;3.97;;;;;;;5.49;100.00;100399.31;677088;28;1321;-81
2022/02/18 01:18:57;;;;;;;15.32;3.88;;;;;;;5.48;100.00;100415.72;671212;29;4372;-82
2022/02/18 01:19:21;;;;;;;15.15;3.90;;;;;;;5.46;100.00;100394.97;673716;29;1490;-81
2022/02/18 01:19:42;;;;;;;16.00;4.22;;;;;;;5.46;100.00;100405.34;671986;29;1345;-81
2022/02/18 01:20:15;;;;;;;14.32;3.50;;;;;;;5.49;100.00;100411.44;675718;29;1389;-81
2022/02/18 01:20:41;;;;;;;15.40;3.42;;;;;;;5.51;100.00;100399.34;676260;29;1577;-81
2022/02/18 01:21:05;;;;;;;18.58;3.95;;;;;;;5.54;99.75;100386.41;676952;29;1546;-82
2022/02/18 01:21:26;;;;;;;15.95;3.50;;;;;;;5.55;100.00;100402.00;672560;29;1270;-81
2022/02/18 01:21:49;;;;;;;20.13;4.10;;;;;;;5.53;100.00;100405.44;676510;29;4348;-81
2022/02/18 01:22:10;;;;;;;16.80;4.10;;;;;;;5.50;100.00;100401.06;676871;29;1260;-81
2022/02/18 01:22:30;;;;;;;13.27;3.60;;;;;;;5.52;100.00;100393.31;669954;29;1462;-82
2022/02/18 01:22:51;;;;;;;14.98;3.83;;;;;;;5.48;100.00;100394.97;670813;29;1367;-81
2022/02/18 01:23:12;;;;;;;18.38;4.30;;;;;;;5.50;100.00;100426.13;672845;29;1779;-81
2022/02/18 01:23:32;;;;;;;13.77;3.50;;;;;;;5.49;100.00;100388.97;670611;29;3247;-81
2022/02/18 01:23:53;;;;;;;14.00;3.57;;;;;;;5.50;100.00;100400.19;673516;29;1438;-81
2022/02/18 01:24:13;;;;;;;15.30;3.33;;;;;;;5.51;100.00;100409.72;673777;29;1353;-81
2022/02/18 01:24:37;;;;;;;16.23;3.40;;;;;;;5.52;100.00;100403.69;673818;29;1202;-81
2022/02/18 01:24:58;;;;;;;16.50;3.95;;;;;;;5.51;100.00;100425.28;672754;29;4382;-81
2022/02/18 01:25:19;;;;;;;16.60;3.72;;;;;;;5.47;100.00;100406.22;672639;29;1513;-81
2022/02/18 01:25:39;;;;;;;19.38;3.95;;;;;;;5.45;100.00;100388.06;674715;29;1212;-81
2022/02/18 01:26:02;;;;;;;18.95;4.28;;;;;;;5.45;100.00;100419.19;678560;29;1708;-82
2022/02/18 01:26:32;;;;;;;17.48;3.75;;;;;;;5.40;100.00;100384.53;677733;29;2068;-81
2022/02/18 01:26:55;;;;;;;18.33;4.07;;;;;;;5.38;100.00;100404.38;676591;29;993;-81
2022/02/18 01:27:25;;;;;;;15.27;3.50;;;;;;;5.44;100.00;100426.91;680640;29;1350;-81
2022/02/18 01:27:58;;;;;;;14.63;3.90;;;;;;;5.46;100.00;100400.16;675775;29;1315;-80
2022/02/18 01:28:19;;;;;;;14.50;3.00;;;;;;;5.48;100.00;100397.56;673013;29;4840;-80
2022/02/18 01:28:40;;;;;;;14.97;3.57;;;;;;;5.49;100.00;100391.56;670241;29;3773;-81
2022/02/18 01:29:01;;;;;;;18.10;3.67;;;;;;;5.49;100.00;100378.59;669926;29;4257;-80
2022/02/18 01:29:26;;;;;;;17.13;3.55;;;;;;;5.48;100.00;100381.16;673370;29;1678;-80
2022/02/18 01:29:46;;;;;;;19.33;3.53;;;;;;;5.51;100.00;100392.44;672580;29;2122;-80
2022/02/18 01:30:09;;;;;;;22.23;3.80;;;;;;;5.52;100.00;100391.56;669144;29;1737;-80
2022/02/18 01:30:30;;;;;;;18.20;3.78;;;;;;;5.52;100.00;100390.72;672217;29;1429;-81
2022/02/18 01:30:50;;;;;;;16.27;3.45;;;;;;;5.51;100.00;100363.94;672714;29;4343;-80
2022/02/18 01:31:14;;;;;;;15.93;3.60;;;;;;;5.53;100.00;100387.28;672478;29;1574;-80
2022/02/18 01:31:41;;;;;;;16.02;3.58;;;;;;;5.51;100.00;100392.44;676033;29;1301;-80
2022/02/18 01:32:02;;;;;;;17.90;3.47;;;;;;;5.54;100.00;100397.66;678345;29;1484;-80
2022/02/18 01:32:23;;;;;;;16.17;3.47;;;;;;;5.57;100.00;100365.72;673254;29;3800;-80
2022/02/18 01:32:46;;;;;;;15.15;3.35;;;;;;;5.58;100.00;100370.03;673032;29;1653;-80
2022/02/18 01:33:07;;;;;;;16.55;4.07;;;;;;;5.56;100.00;100392.50;675885;29;1895;-80
2022/02/18 01:33:27;;;;;;;16.57;3.13;;;;;;;5.57;100.00;100396.84;672520;29;1373;-80
2022/02/18 01:33:52;;;;;;;17.67;3.30;;;;;;;5.55;100.00;100362.22;673355;29;1495;-80
2022/02/18 01:34:13;;;;;;;14.10;3.40;;;;;;;5.58;100.00;100390.78;671916;29;4974;-80
2022/02/18 01:34:34;;;;;;;14.32;3.33;;;;;;;5.56;100.00;100364.84;675613;29;1287;-80
2022/02/18 01:34:55;;;;;;;18.55;3.75;;;;;;;5.56;100.00;100395.94;678428;29;1290;-80
2022/02/18 01:35:18;;;;;;;15.93;3.47;;;;;;;5.59;100.00;100359.69;678483;29;2310;-80
2022/02/18 01:35:50;;;;;;;15.68;3.63;;;;;;;5.60;100.00;100371.78;676581;29;1647;-80
2022/02/18 01:36:11;;;;;;;14.80;3.20;;;;;;;5.61;100.00;100351.94;678468;29;1276;-80
2022/02/18 01:36:32;;;;;;;13.73;3.33;;;;;;;5.62;100.00;100370.09;678200;29;1588;-80
2022/02/18 01:36:52;;;;;;;15.07;3.60;;;;;;;5.59;100.00;100389.94;679621;29;4375;-80
2022/02/18 01:37:13;;;;;;;16.27;3.13;;;;;;;5.61;100.00;100373.53;680616;28;2215;-81
2022/02/18 01:37:33;;;;;;;15.63;3.40;;;;;;;5.60;100.00;100370.94;678478;29;1336;-80
2022/02/18 01:37:54;;;;;;;16.43;3.50;;;;;;;5.60;100.00;100358.81;673322;29;1466;-82
2022/02/18 01:38:15;;;;;;;17.38;4.40;;;;;;;5.60;100.00;100369.19;673941;29;1859;-80
2022/02/18 01:38:37;;;;;;;16.48;3.70;;;;;;;5.61;100.00;100381.31;672890;29;1558;-80
2022/02/18 01:38:57;;;;;;;19.83;3.80;;;;;;;5.62;100.00;100371.81;675526;29;2009;-80
2022/02/18 01:39:18;;;;;;;17.07;3.70;;;;;;;5.64;100.00;100383.09;673560;29;1049;-80
2022/02/18 01:39:39;;;;;;;14.52;3.20;;;;;;;5.63;100.00;100374.44;675273;29;1300;-80
2022/02/18 01:40:00;;;;;;;16.43;3.47;;;;;;;5.66;100.00;100349.38;673484;29;4361;-80
2022/02/18 01:40:25;;;;;;;16.00;3.78;;;;;;;5.63;100.00;100371.84;673984;29;1345;-80
2022/02/18 01:40:45;;;;;;;16.67;3.25;;;;;;;5.63;100.00;100364.06;670052;29;1733;-80
2022/02/18 01:41:07;;;;;;;13.95;3.15;;;;;;;5.67;100.00;100390.03;670839;29;1357;-80
2022/02/18 01:41:32;;;;;;;15.93;3.10;;;;;;;5.74;100.00;100358.97;678291;29;1492;-83
2022/02/18 01:41:53;;;;;;;14.90;3.33;;;;;;;5.74;100.00;100378.84;674919;29;2523;-80
2022/02/18 01:42:19;;;;;;;16.40;3.58;;;;;;;5.72;100.00;100355.50;678178;29;1434;-80
2022/02/18 01:42:42;;;;;;;19.92;3.75;;;;;;;5.69;100.00;100350.28;678614;29;4466;-80
2022/02/18 01:43:05;;;;;;;17.48;3.88;;;;;;;5.69;100.00;100349.41;666045;29;4548;-80
2022/02/18 01:43:25;;;;;;;14.80;3.15;;;;;;;5.68;100.00;100379.66;679145;29;1740;-80
2022/02/18 01:43:56;;;;;;;14.18;3.30;;;;;;;5.68;100.00;100373.63;681043;28;1409;-80
2022/02/18 01:44:41;;;;;;;15.23;3.30;;;;;;;5.65;100.00;100379.63;676618;29;1476;-80
2022/02/18 01:45:09;;;;;;;16.48;3.22;;;;;;;5.63;100.00;100356.28;675222;29;1476;-80
2022/02/18 01:45:30;;;;;;;18.05;3.20;;;;;;;5.63;100.00;100376.16;672743;29;3698;-80
2022/02/18 01:45:53;;;;;;;16.45;3.25;;;;;;;5.63;100.00;100377.03;672541;29;4517;-80
2022/02/18 01:46:20;;;;;;;13.25;3.50;;;;;;;5.67;100.00;100375.31;675410;29;1824;-81
2022/02/18 01:46:41;;;;;;;15.10;3.38;;;;;;;5.67;100.00;100354.56;673417;29;3684;-80
2022/02/18 01:47:04;;;;;;;16.90;3.58;;;;;;;5.62;100.00;100364.03;672719;29;1312;-80
2022/02/18 01:47:24;;;;;;;13.77;3.00;;;;;;;5.63;100.00;100342.44;672444;29;1766;-80
2022/02/18 01:47:45;;;;;;;15.90;3.10;;;;;;;5.62;100.00;100338.09;678824;29;1902;-80
2022/02/18 01:48:06;;;;;;;15.48;3.47;;;;;;;5.62;100.00;100358.84;674898;29;1463;-80
2022/02/18 01:48:33;;;;;;;16.13;3.47;;;;;;;5.63;100.00;100364.06;673612;29;1560;-80
2022/02/18 01:48:55;;;;;;;17.63;3.47;;;;;;;5.65;100.00;100337.25;672598;29;4482;-80
2022/02/18 01:49:18;;;;;;;13.15;3.05;;;;;;;5.62;100.00;100335.50;677714;29;4236;-80
2022/02/18 01:49:39;;;;;;;15.85;3.22;;;;;;;5.61;100.00;100339.81;675535;29;1767;-80
2022/02/18 01:50:00;;;;;;;16.80;4.03;;;;;;;5.62;100.00;100340.69;672953;29;1650;-80
2022/02/18 01:50:21;;;;;;;16.63;3.80;;;;;;;5.64;100.00;100359.75;674968;29;1326;-80
2022/02/18 01:50:42;;;;;;;13.98;3.35;;;;;;;5.61;100.00;100329.44;675271;29;1815;-80
2022/02/18 01:51:03;;;;;;;14.63;3.20;;;;;;;5.65;100.00;100342.44;676356;29;1433;-80
2022/02/18 01:51:27;;;;;;;14.93;3.10;;;;;;;5.67;100.00;100351.13;673451;29;1192;-80
2022/02/18 01:51:48;;;;;;;15.35;3.05;;;;;;;5.64;100.00;100331.22;677870;29;1312;-80
2022/02/18 01:52:10;;;;;;;13.17;3.10;;;;;;;5.64;100.00;100341.59;676387;29;5164;-80